Elliottville, Kentucky
Current Conditions -  °F | °C
As of 4:30 AM on Monday 24 Nov 2014 (Local Time) from KSYM Reporting Station
Overcast Overcast  
Wind Chill: 61°   Ceiling: 3600
Heat Index: 61°   Visibility: 10mi
Dew Point: 54°   Wind: 17mph
Humidity: 77%   Direction: 200°SSW
Pressure: 29.47"   Gusts: 26mph
Location:  38.18°N, 83.28°W
Report Text: KSYM 240930Z AUTO 20015G23KT 10SM FEW025 BKN036 OVC060 16/12 A2947 RMK AO2
Loading
Personal Weather Stations






























Interactive Weather Map New forecast layout! Learn more

10-Day Weather Forecast

Advertisements
Track Severe Weather on mobile